sensor_id;sensor_type;location;lat;lon;timestamp;pressure;altitude;pressure_sealevel;temperature;humidity
46430;BME280;32131;53.454;-6.180;2022-08-24T00:01:58;100965.25;;;18.87;74.29
46430;BME280;32131;53.454;-6.180;2022-08-24T00:04:27;100952.47;;;18.68;75.36
46430;BME280;32131;53.454;-6.180;2022-08-24T00:07:03;100964.06;;;18.50;76.24
46430;BME280;32131;53.454;-6.180;2022-08-24T00:09:50;100961.69;;;18.32;77.59
46430;BME280;32131;53.454;-6.180;2022-08-24T00:12:18;100965.28;;;18.21;78.30
46430;BME280;32131;53.454;-6.180;2022-08-24T00:14:47;100975.00;;;18.10;79.03
46430;BME280;32131;53.454;-6.180;2022-08-24T00:20:50;100944.84;;;17.80;81.07
46430;BME280;32131;53.454;-6.180;2022-08-24T00:23:29;100951.06;;;17.71;82.68
46430;BME280;32131;53.454;-6.180;2022-08-24T00:25:58;100956.31;;;17.66;83.80
46430;BME280;32131;53.454;-6.180;2022-08-24T00:28:26;100960.69;;;17.64;84.13
46430;BME280;32131;53.454;-6.180;2022-08-24T00:30:55;100953.75;;;17.65;85.09
46430;BME280;32131;53.454;-6.180;2022-08-24T00:33:23;100947.69;;;17.61;85.48
46430;BME280;32131;53.454;-6.180;2022-08-24T00:35:52;100959.91;;;17.56;86.31
46430;BME280;32131;53.454;-6.180;2022-08-24T00:38:20;100948.63;;;17.52;86.75
46430;BME280;32131;53.454;-6.180;2022-08-24T00:40:53;100955.69;;;17.46;87.17
46430;BME280;32131;53.454;-6.180;2022-08-24T00:43:24;100946.09;;;17.43;87.99
46430;BME280;32131;53.454;-6.180;2022-08-24T00:46:02;100955.66;;;17.44;88.24
46430;BME280;32131;53.454;-6.180;2022-08-24T00:48:38;100944.38;;;17.42;88.53
46430;BME280;32131;53.454;-6.180;2022-08-24T00:51:13;100943.63;;;17.31;89.10
46430;BME280;32131;53.454;-6.180;2022-08-24T00:53:47;100953.34;;;17.13;90.53
46430;BME280;32131;53.454;-6.180;2022-08-24T00:56:19;100949.91;;;17.08;91.34
46430;BME280;32131;53.454;-6.180;2022-08-24T00:59:01;100953.44;;;17.02;91.54
46430;BME280;32131;53.454;-6.180;2022-08-24T01:01:33;100945.59;;;17.04;91.60
46430;BME280;32131;53.454;-6.180;2022-08-24T01:04:04;100952.56;;;17.03;92.30
46430;BME280;32131;53.454;-6.180;2022-08-24T01:06:33;100951.69;;;17.01;92.88
46430;BME280;32131;53.454;-6.180;2022-08-24T01:09:03;100943.94;;;16.93;93.99
46430;BME280;32131;53.454;-6.180;2022-08-24T01:11:32;100942.16;;;16.97;93.75
46430;BME280;32131;53.454;-6.180;2022-08-24T01:14:03;100941.31;;;16.93;94.56
46430;BME280;32131;53.454;-6.180;2022-08-24T01:16:32;100937.84;;;16.88;94.86
46430;BME280;32131;53.454;-6.180;2022-08-24T01:19:30;100934.44;;;16.80;95.72
46430;BME280;32131;53.454;-6.180;2022-08-24T01:22:20;100931.00;;;16.73;96.80
46430;BME280;32131;53.454;-6.180;2022-08-24T01:24:55;100944.03;;;16.73;96.76
46430;BME280;32131;53.454;-6.180;2022-08-24T01:27:23;100952.75;;;16.71;97.19
46430;BME280;32131;53.454;-6.180;2022-08-24T01:29:53;100951.03;;;16.66;98.00
46430;BME280;32131;53.454;-6.180;2022-08-24T01:32:23;100949.34;;;16.62;97.89
46430;BME280;32131;53.454;-6.180;2022-08-24T01:34:53;100948.50;;;16.57;98.82
46430;BME280;32131;53.454;-6.180;2022-08-24T01:37:22;100951.13;;;16.57;99.00
46430;BME280;32131;53.454;-6.180;2022-08-24T01:39:53;100956.34;;;16.53;99.82
46430;BME280;32131;53.454;-6.180;2022-08-24T01:42:26;100960.72;;;16.49;99.90
46430;BME280;32131;53.454;-6.180;2022-08-24T01:44:55;100954.63;;;16.48;100.00
46430;BME280;32131;53.454;-6.180;2022-08-24T01:47:23;100953.78;;;16.43;100.00
46430;BME280;32131;53.454;-6.180;2022-08-24T01:49:51;100955.50;;;16.43;100.00
46430;BME280;32131;53.454;-6.180;2022-08-24T01:52:22;100956.41;;;16.43;100.00
46430;BME280;32131;53.454;-6.180;2022-08-24T01:54:50;100967.72;;;16.41;100.00
46430;BME280;32131;53.454;-6.180;2022-08-24T01:57:19;100984.25;;;16.32;100.00
46430;BME280;32131;53.454;-6.180;2022-08-24T01:59:52;100991.25;;;16.10;100.00
46430;BME280;32131;53.454;-6.180;2022-08-24T02:02:24;100993.91;;;15.94;100.00
46430;BME280;32131;53.454;-6.180;2022-08-24T02:04:55;100992.19;;;15.78;100.00
46430;BME280;32131;53.454;-6.180;2022-08-24T02:07:24;100989.59;;;15.70;100.00
46430;BME280;32131;53.454;-6.180;2022-08-24T02:09:52;100989.63;;;15.64;100.00
46430;BME280;32131;53.454;-6.180;2022-08-24T02:12:20;100993.09;;;15.58;100.00
46430;BME280;32131;53.454;-6.180;2022-08-24T02:14:48;100997.44;;;15.53;100.00
46430;BME280;32131;53.454;-6.180;2022-08-24T02:17:18;101001.78;;;15.45;100.00
46430;BME280;32131;53.454;-6.180;2022-08-24T02:19:47;100997.44;;;15.40;100.00
46430;BME280;32131;53.454;-6.180;2022-08-24T02:22:15;100990.50;;;15.33;100.00
46430;BME280;32131;53.454;-6.180;2022-08-24T02:24:44;100987.03;;;15.28;100.00
46430;BME280;32131;53.454;-6.180;2022-08-24T02:27:12;100994.00;;;15.28;100.00
46430;BME280;32131;53.454;-6.180;2022-08-24T02:29:42;100994.00;;;15.23;100.00
46430;BME280;32131;53.454;-6.180;2022-08-24T02:32:11;100993.09;;;15.19;100.00
46430;BME280;32131;53.454;-6.180;2022-08-24T02:34:41;100992.25;;;15.20;100.00
46430;BME280;32131;53.454;-6.180;2022-08-24T02:37:09;100988.78;;;15.20;100.00
46430;BME280;32131;53.454;-6.180;2022-08-24T02:39:37;100987.91;;;15.18;100.00
46430;BME280;32131;53.454;-6.180;2022-08-24T02:42:06;100991.38;;;15.17;100.00
46430;BME280;32131;53.454;-6.180;2022-08-24T02:44:34;100992.25;;;15.14;100.00
46430;BME280;32131;53.454;-6.180;2022-08-24T02:47:03;100996.59;;;15.14;100.00
46430;BME280;32131;53.454;-6.180;2022-08-24T02:49:32;101000.91;;;15.18;100.00
46430;BME280;32131;53.454;-6.180;2022-08-24T02:52:02;101012.19;;;15.17;100.00
46430;BME280;32131;53.454;-6.180;2022-08-24T02:54:31;101007.00;;;15.20;100.00
46430;BME280;32131;53.454;-6.180;2022-08-24T02:57:00;101009.59;;;15.23;100.00
46430;BME280;32131;53.454;-6.180;2022-08-24T02:59:28;101002.66;;;15.22;100.00
46430;BME280;32131;53.454;-6.180;2022-08-24T03:01:56;101010.44;;;15.20;100.00
46430;BME280;32131;53.454;-6.180;2022-08-24T03:04:24;101012.19;;;15.17;100.00
46430;BME280;32131;53.454;-6.180;2022-08-24T03:06:53;101015.66;;;15.14;100.00
46430;BME280;32131;53.454;-6.180;2022-08-24T03:09:22;101031.25;;;15.14;100.00
46430;BME280;32131;53.454;-6.180;2022-08-24T03:11:54;101019.13;;;15.18;100.00
46430;BME280;32131;53.454;-6.180;2022-08-24T03:14:22;101026.91;;;15.24;100.00
46430;BME280;32131;53.454;-6.180;2022-08-24T03:16:50;101025.22;;;15.23;100.00
46430;BME280;32131;53.454;-6.180;2022-08-24T03:19:18;101017.41;;;15.18;99.98
46430;BME280;32131;53.454;-6.180;2022-08-24T03:21:49;101020.88;;;15.17;99.80
46430;BME280;32131;53.454;-6.180;2022-08-24T03:24:19;101013.91;;;15.18;99.59
46430;BME280;32131;53.454;-6.180;2022-08-24T03:26:48;101009.59;;;15.20;99.04
46430;BME280;32131;53.454;-6.180;2022-08-24T03:29:17;101020.00;;;15.20;98.98
46430;BME280;32131;53.454;-6.180;2022-08-24T03:31:45;101006.13;;;15.18;98.54
46430;BME280;32131;53.454;-6.180;2022-08-24T03:34:14;101013.06;;;15.22;98.31
46430;BME280;32131;53.454;-6.180;2022-08-24T03:36:42;101020.00;;;15.23;98.25
46430;BME280;32131;53.454;-6.180;2022-08-24T03:39:12;101010.47;;;15.23;98.26
46430;BME280;32131;53.454;-6.180;2022-08-24T03:41:41;101011.31;;;15.27;97.81
46430;BME280;32131;53.454;-6.180;2022-08-24T03:44:11;101015.66;;;15.28;98.02
46430;BME280;32131;53.454;-6.180;2022-08-24T03:46:39;101008.72;;;15.32;97.88
46430;BME280;32131;53.454;-6.180;2022-08-24T03:49:08;101009.56;;;15.32;97.70
46430;BME280;32131;53.454;-6.180;2022-08-24T03:51:36;101009.56;;;15.32;97.54
46430;BME280;32131;53.454;-6.180;2022-08-24T03:54:07;101013.94;;;15.32;97.17
46430;BME280;32131;53.454;-6.180;2022-08-24T03:56:35;101015.69;;;15.31;96.96
46430;BME280;32131;53.454;-6.180;2022-08-24T03:59:04;101026.09;;;15.31;97.02
46430;BME280;32131;53.454;-6.180;2022-08-24T04:01:34;101028.69;;;15.31;97.04
46430;BME280;32131;53.454;-6.180;2022-08-24T04:04:04;101027.81;;;15.35;97.06
46430;BME280;32131;53.454;-6.180;2022-08-24T04:06:32;101024.34;;;15.35;97.14
46430;BME280;32131;53.454;-6.180;2022-08-24T04:09:01;101028.69;;;15.31;97.31
46430;BME280;32131;53.454;-6.180;2022-08-24T04:11:29;101035.59;;;15.29;97.26
46430;BME280;32131;53.454;-6.180;2022-08-24T04:13:57;101038.22;;;15.28;97.38
46430;BME280;32131;53.454;-6.180;2022-08-24T04:16:27;101038.22;;;15.23;97.35
46430;BME280;32131;53.454;-6.180;2022-08-24T04:18:57;101043.41;;;15.15;97.52
46430;BME280;32131;53.454;-6.180;2022-08-24T04:21:26;101039.91;;;15.08;97.99
46430;BME280;32131;53.454;-6.180;2022-08-24T04:23:55;101036.44;;;15.03;98.22
46430;BME280;32131;53.454;-6.180;2022-08-24T04:26:26;101051.19;;;14.98;98.30
46430;BME280;32131;53.454;-6.180;2022-08-24T04:29:12;101051.16;;;14.95;98.35
46430;BME280;32131;53.454;-6.180;2022-08-24T04:31:41;101050.28;;;14.90;98.60
46430;BME280;32131;53.454;-6.180;2022-08-24T04:34:13;101054.59;;;14.85;98.81
46430;BME280;32131;53.454;-6.180;2022-08-24T04:36:42;101047.66;;;14.81;99.02
46430;BME280;32131;53.454;-6.180;2022-08-24T04:39:11;101056.31;;;14.80;99.17
46430;BME280;32131;53.454;-6.180;2022-08-24T04:41:40;101070.19;;;14.78;98.98
46430;BME280;32131;53.454;-6.180;2022-08-24T04:44:09;101077.13;;;14.80;99.16
46430;BME280;32131;53.454;-6.180;2022-08-24T04:46:38;101073.63;;;14.79;99.15
46430;BME280;32131;53.454;-6.180;2022-08-24T04:49:06;101064.97;;;14.80;99.09
46430;BME280;32131;53.454;-6.180;2022-08-24T04:51:36;101070.16;;;14.82;99.06
46430;BME280;32131;53.454;-6.180;2022-08-24T04:54:04;101077.97;;;14.82;99.01
46430;BME280;32131;53.454;-6.180;2022-08-24T04:56:34;101080.56;;;14.82;98.96
46430;BME280;32131;53.454;-6.180;2022-08-24T04:59:02;101083.16;;;14.82;98.98
46430;BME280;32131;53.454;-6.180;2022-08-24T05:01:31;101097.06;;;14.81;98.96
46430;BME280;32131;53.454;-6.180;2022-08-24T05:04:00;101099.63;;;14.77;99.10
46430;BME280;32131;53.454;-6.180;2022-08-24T05:06:29;101101.38;;;14.78;99.03
46430;BME280;32131;53.454;-6.180;2022-08-24T05:09:01;101094.44;;;14.77;99.16
46430;BME280;32131;53.454;-6.180;2022-08-24T05:11:30;101103.09;;;14.76;99.02
46430;BME280;32131;53.454;-6.180;2022-08-24T05:13:58;101104.81;;;14.74;99.12
46430;BME280;32131;53.454;-6.180;2022-08-24T05:16:26;101105.66;;;14.72;99.13
46430;BME280;32131;53.454;-6.180;2022-08-24T05:18:57;101111.72;;;14.69;99.36
46430;BME280;32131;53.454;-6.180;2022-08-24T05:21:27;101113.47;;;14.70;99.30
46430;BME280;32131;53.454;-6.180;2022-08-24T05:23:56;101121.28;;;14.69;99.33
46430;BME280;32131;53.454;-6.180;2022-08-24T05:26:28;101123.84;;;14.67;99.58
46430;BME280;32131;53.454;-6.180;2022-08-24T05:28:59;101130.78;;;14.67;99.58
46430;BME280;32131;53.454;-6.180;2022-08-24T05:31:29;101131.63;;;14.67;99.61
46430;BME280;32131;53.454;-6.180;2022-08-24T05:33:58;101141.19;;;14.67;99.51
46430;BME280;32131;53.454;-6.180;2022-08-24T05:36:29;101146.31;;;14.65;99.63
46430;BME280;32131;53.454;-6.180;2022-08-24T05:38:57;101150.69;;;14.66;99.65
46430;BME280;32131;53.454;-6.180;2022-08-24T05:41:28;101145.50;;;14.68;99.13
46430;BME280;32131;53.454;-6.180;2022-08-24T05:43:56;101139.44;;;14.67;99.34
46430;BME280;32131;53.454;-6.180;2022-08-24T05:46:25;101152.47;;;14.69;99.40
46430;BME280;32131;53.454;-6.180;2022-08-24T05:48:53;101153.31;;;14.69;99.34
46430;BME280;32131;53.454;-6.180;2022-08-24T05:51:23;101152.44;;;14.72;99.33
46430;BME280;32131;53.454;-6.180;2022-08-24T05:53:51;101160.25;;;14.73;99.25
46430;BME280;32131;53.454;-6.180;2022-08-24T05:56:20;101168.97;;;14.77;99.08
46430;BME280;32131;53.454;-6.180;2022-08-24T05:58:49;101179.34;;;14.78;99.02
46430;BME280;32131;53.454;-6.180;2022-08-24T06:01:19;101181.09;;;14.80;98.93
46430;BME280;32131;53.454;-6.180;2022-08-24T06:03:48;101180.22;;;14.84;98.81
46430;BME280;32131;53.454;-6.180;2022-08-24T06:06:17;101184.56;;;14.85;98.32
46430;BME280;32131;53.454;-6.180;2022-08-24T06:08:48;101188.03;;;14.84;98.59
46430;BME280;32131;53.454;-6.180;2022-08-24T06:11:21;101198.47;;;14.87;98.58
46430;BME280;32131;53.454;-6.180;2022-08-24T06:14:00;101199.34;;;14.90;98.43
46430;BME280;32131;53.454;-6.180;2022-08-24T06:16:33;101197.66;;;14.97;98.13
46430;BME280;32131;53.454;-6.180;2022-08-24T06:19:02;101193.28;;;14.99;98.10
46430;BME280;32131;53.454;-6.180;2022-08-24T06:21:32;101198.53;;;15.02;97.85
46430;BME280;32131;53.454;-6.180;2022-08-24T06:24:00;101211.53;;;15.01;97.65
46430;BME280;32131;53.454;-6.180;2022-08-24T06:26:29;101220.19;;;15.01;97.34
46430;BME280;32131;53.454;-6.180;2022-08-24T06:29:20;101218.47;;;15.02;97.27
46430;BME280;32131;53.454;-6.180;2022-08-24T06:31:55;101218.47;;;15.02;97.19
46430;BME280;32131;53.454;-6.180;2022-08-24T06:34:25;101226.25;;;15.03;97.24
46430;BME280;32131;53.454;-6.180;2022-08-24T06:36:53;101230.59;;;15.04;97.27
46430;BME280;32131;53.454;-6.180;2022-08-24T06:39:22;101229.78;;;15.12;96.88
46430;BME280;32131;53.454;-6.180;2022-08-24T06:41:51;101235.00;;;15.18;96.58
46430;BME280;32131;53.454;-6.180;2022-08-24T06:44:20;101234.19;;;15.27;96.02
46430;BME280;32131;53.454;-6.180;2022-08-24T06:46:49;101235.94;;;15.40;95.47
46430;BME280;32131;53.454;-6.180;2022-08-24T06:49:18;101241.19;;;15.55;94.73
46430;BME280;32131;53.454;-6.180;2022-08-24T06:51:52;101241.25;;;15.76;93.81
46430;BME280;32131;53.454;-6.180;2022-08-24T06:54:20;101244.75;;;15.88;93.05
46430;BME280;32131;53.454;-6.180;2022-08-24T06:56:48;101243.94;;;15.97;92.42
46430;BME280;32131;53.454;-6.180;2022-08-24T06:59:16;101243.06;;;16.06;91.91
46430;BME280;32131;53.454;-6.180;2022-08-24T07:01:46;101245.66;;;16.22;91.28
46430;BME280;32131;53.454;-6.180;2022-08-24T07:04:14;101254.38;;;16.36;90.71
46430;BME280;32131;53.454;-6.180;2022-08-24T07:06:42;101249.13;;;16.44;90.13
46430;BME280;32131;53.454;-6.180;2022-08-24T07:09:10;101250.88;;;16.54;89.74
46430;BME280;32131;53.454;-6.180;2022-08-24T07:11:38;101236.09;;;16.61;89.52
46430;BME280;32131;53.454;-6.180;2022-08-24T07:14:07;101242.16;;;16.71;89.08
46430;BME280;32131;53.454;-6.180;2022-08-24T07:16:35;101241.25;;;16.79;88.61
46430;BME280;32131;53.454;-6.180;2022-08-24T07:19:05;101243.88;;;16.81;88.36
46430;BME280;32131;53.454;-6.180;2022-08-24T07:21:33;101236.03;;;16.79;88.34
46430;BME280;32131;53.454;-6.180;2022-08-24T07:24:03;101243.00;;;16.76;88.30
46430;BME280;32131;53.454;-6.180;2022-08-24T07:26:32;101243.00;;;16.84;88.32
46430;BME280;32131;53.454;-6.180;2022-08-24T07:29:05;101246.47;;;16.90;87.33
46430;BME280;32131;53.454;-6.180;2022-08-24T07:31:46;101262.09;;;17.06;86.70
46430;BME280;32131;53.454;-6.180;2022-08-24T07:34:16;101263.78;;;17.21;85.88
46430;BME280;32131;53.454;-6.180;2022-08-24T07:36:44;101272.47;;;17.17;85.52
46430;BME280;32131;53.454;-6.180;2022-08-24T07:39:12;101265.56;;;17.09;85.73
46430;BME280;32131;53.454;-6.180;2022-08-24T07:41:42;101264.66;;;17.12;85.47
46430;BME280;32131;53.454;-6.180;2022-08-24T07:44:31;101261.97;;;17.34;84.59
46430;BME280;32131;53.454;-6.180;2022-08-24T07:46:59;101261.00;;;17.58;83.21
46430;BME280;32131;53.454;-6.180;2022-08-24T07:49:51;101252.97;;;17.89;82.05
46430;BME280;32131;53.454;-6.180;2022-08-24T07:52:20;101239.81;;;18.07;81.25
46430;BME280;32131;53.454;-6.180;2022-08-24T07:54:48;101247.47;;;18.28;80.75
46430;BME280;32131;53.454;-6.180;2022-08-24T07:57:17;101255.38;;;18.25;79.88
46430;BME280;32131;53.454;-6.180;2022-08-24T07:59:46;101272.00;;;18.14;79.03
46430;BME280;32131;53.454;-6.180;2022-08-24T08:02:14;101272.94;;;18.01;78.97
46430;BME280;32131;53.454;-6.180;2022-08-24T08:04:54;101279.94;;;17.99;78.80
46430;BME280;32131;53.454;-6.180;2022-08-24T08:07:24;101287.69;;;18.13;78.38
46430;BME280;32131;53.454;-6.180;2022-08-24T08:09:53;101284.94;;;18.30;78.04
46430;BME280;32131;53.454;-6.180;2022-08-24T08:12:22;101291.97;;;18.21;77.62
46430;BME280;32131;53.454;-6.180;2022-08-24T08:14:50;101294.59;;;18.17;77.67
46430;BME280;32131;53.454;-6.180;2022-08-24T08:17:18;101298.09;;;18.19;77.38
46430;BME280;32131;53.454;-6.180;2022-08-24T08:19:46;101292.78;;;18.27;77.08
46430;BME280;32131;53.454;-6.180;2022-08-24T08:22:16;101297.06;;;18.37;76.23
46430;BME280;32131;53.454;-6.180;2022-08-24T08:25:02;101292.47;;;18.67;75.51
46430;BME280;32131;53.454;-6.180;2022-08-24T08:27:31;101284.28;;;19.03;74.43
46430;BME280;32131;53.454;-6.180;2022-08-24T08:30:00;101283.16;;;19.24;73.23
46430;BME280;32131;53.454;-6.180;2022-08-24T08:32:31;101286.41;;;19.43;72.43
46430;BME280;32131;53.454;-6.180;2022-08-24T08:35:00;101294.25;;;19.44;72.28
46430;BME280;32131;53.454;-6.180;2022-08-24T08:37:33;101314.50;;;19.30;72.16
46430;BME280;32131;53.454;-6.180;2022-08-24T08:40:04;101319.88;;;19.17;72.23
46430;BME280;32131;53.454;-6.180;2022-08-24T08:42:51;101314.75;;;19.08;72.08
46430;BME280;32131;53.454;-6.180;2022-08-24T08:45:29;101307.81;;;19.04;71.50
46430;BME280;32131;53.454;-6.180;2022-08-24T08:48:31;101305.09;;;19.13;71.22
46430;BME280;32131;53.454;-6.180;2022-08-24T08:51:39;101309.31;;;19.25;71.27
46430;BME280;32131;53.454;-6.180;2022-08-24T08:54:48;101317.88;;;19.38;70.99
46430;BME280;32131;53.454;-6.180;2022-08-24T08:57:30;101315.25;;;19.40;70.28
46430;BME280;32131;53.454;-6.180;2022-08-24T09:00:10;101314.38;;;19.42;69.53
46430;BME280;32131;53.454;-6.180;2022-08-24T09:03:10;101330.00;;;19.48;69.84
46430;BME280;32131;53.454;-6.180;2022-08-24T09:06:10;101319.16;;;19.76;68.82
46430;BME280;32131;53.454;-6.180;2022-08-24T09:11:49;101338.16;;;19.95;67.02
46430;BME280;32131;53.454;-6.180;2022-08-24T09:14:41;101330.44;;;19.85;67.00
46430;BME280;32131;53.454;-6.180;2022-08-24T09:17:27;101335.78;;;19.72;67.07
46430;BME280;32131;53.454;-6.180;2022-08-24T09:20:15;101333.22;;;19.68;66.70
46430;BME280;32131;53.454;-6.180;2022-08-24T09:22:47;101339.22;;;19.79;66.05
46430;BME280;32131;53.454;-6.180;2022-08-24T09:25:28;101335.25;;;20.13;65.34
46430;BME280;32131;53.454;-6.180;2022-08-24T09:28:12;101332.53;;;20.20;64.60
46430;BME280;32131;53.454;-6.180;2022-08-24T09:33:55;101341.59;;;20.54;63.45
46430;BME280;32131;53.454;-6.180;2022-08-24T09:36:43;101338.94;;;20.57;62.99
46430;BME280;32131;53.454;-6.180;2022-08-24T09:39:34;101335.28;;;20.66;62.91
46430;BME280;32131;53.454;-6.180;2022-08-24T09:42:23;101326.44;;;20.75;62.13
46430;BME280;32131;53.454;-6.180;2022-08-24T09:45:28;101329.88;;;20.78;62.19
46430;BME280;32131;53.454;-6.180;2022-08-24T09:54:12;101327.56;;;21.10;60.24
46430;BME280;32131;53.454;-6.180;2022-08-24T09:57:06;101348.50;;;21.11;59.58
46430;BME280;32131;53.454;-6.180;2022-08-24T10:03:44;101349.00;;;21.30;58.58
46430;BME280;32131;53.454;-6.180;2022-08-24T10:10:07;101338.78;;;21.18;59.01
46430;BME280;32131;53.454;-6.180;2022-08-24T10:13:18;101353.25;;;21.38;58.27
46430;BME280;32131;53.454;-6.180;2022-08-24T10:27:14;101340.09;;;22.21;55.34
46430;BME280;32131;53.454;-6.180;2022-08-24T10:29:26;101342.88;;;22.52;53.70
46430;BME280;32131;53.454;-6.180;2022-08-24T10:32:13;101328.38;;;22.34;54.50
46430;BME280;32131;53.454;-6.180;2022-08-24T10:34:56;101325.63;;;22.75;54.18
46430;BME280;32131;53.454;-6.180;2022-08-24T10:38:02;101330.19;;;23.03;53.35
46430;BME280;32131;53.454;-6.180;2022-08-24T10:41:02;101342.25;;;22.77;51.03
46430;BME280;32131;53.454;-6.180;2022-08-24T10:44:00;101344.88;;;22.42;52.13
46430;BME280;32131;53.454;-6.180;2022-08-24T10:46:47;101344.19;;;22.70;52.03
46430;BME280;32131;53.454;-6.180;2022-08-24T10:52:45;101346.81;;;22.70;52.58
46430;BME280;32131;53.454;-6.180;2022-08-24T10:55:33;101363.72;;;22.61;52.35
46430;BME280;32131;53.454;-6.180;2022-08-24T11:04:05;101357.38;;;22.69;50.07
46430;BME280;32131;53.454;-6.180;2022-08-24T11:06:36;101368.19;;;22.58;50.09
46430;BME280;32131;53.454;-6.180;2022-08-24T11:09:05;101371.00;;;22.50;50.31
46430;BME280;32131;53.454;-6.180;2022-08-24T11:11:36;101373.94;;;22.36;50.44
46430;BME280;32131;53.454;-6.180;2022-08-24T11:14:08;101372.28;;;22.32;50.50
46430;BME280;32131;53.454;-6.180;2022-08-24T11:16:49;101376.25;;;22.50;50.42
46430;BME280;32131;53.454;-6.180;2022-08-24T11:22:00;101367.09;;;23.00;49.05
46430;BME280;32131;53.454;-6.180;2022-08-24T11:59:52;101392.22;;;24.34;43.77
46430;BME280;32131;53.454;-6.180;2022-08-24T12:02:29;101396.53;;;24.10;43.77
46430;BME280;32131;53.454;-6.180;2022-08-24T12:05:25;101393.84;;;23.80;43.55
46430;BME280;32131;53.454;-6.180;2022-08-24T12:08:06;101393.78;;;23.83;44.02
46430;BME280;32131;53.454;-6.180;2022-08-24T12:10:44;101374.22;;;23.91;44.08
46430;BME280;32131;53.454;-6.180;2022-08-24T12:13:30;101386.34;;;23.98;43.87
46430;BME280;32131;53.454;-6.180;2022-08-24T12:16:07;101389.16;;;24.22;43.73
46430;BME280;32131;53.454;-6.180;2022-08-24T12:18:45;101381.19;;;24.23;42.88
46430;BME280;32131;53.454;-6.180;2022-08-24T12:21:16;101378.88;;;24.12;43.29
46430;BME280;32131;53.454;-6.180;2022-08-24T12:23:49;101393.13;;;24.35;42.97
46430;BME280;32131;53.454;-6.180;2022-08-24T12:26:21;101386.81;;;24.68;42.54
46430;BME280;32131;53.454;-6.180;2022-08-24T12:28:55;101394.16;;;24.85;41.45
46430;BME280;32131;53.454;-6.180;2022-08-24T12:31:35;101387.97;;;24.86;41.48
46430;BME280;32131;53.454;-6.180;2022-08-24T12:34:11;101395.66;;;24.65;41.63
46430;BME280;32131;53.454;-6.180;2022-08-24T12:36:50;101406.34;;;24.60;41.68
46430;BME280;32131;53.454;-6.180;2022-08-24T12:39:25;101409.34;;;24.49;41.61
46430;BME280;32131;53.454;-6.180;2022-08-24T12:42:04;101407.81;;;24.71;41.69
46430;BME280;32131;53.454;-6.180;2022-08-24T12:44:39;101401.28;;;25.08;41.19
46430;BME280;32131;53.454;-6.180;2022-08-24T12:47:10;101414.53;;;25.06;40.39
46430;BME280;32131;53.454;-6.180;2022-08-24T12:49:45;101414.69;;;25.02;40.98
46430;BME280;32131;53.454;-6.180;2022-08-24T12:55:38;101410.03;;;24.56;40.69
46430;BME280;32131;53.454;-6.180;2022-08-24T12:58:24;101415.88;;;24.68;40.89
46430;BME280;32131;53.454;-6.180;2022-08-24T13:01:02;101414.81;;;24.72;39.59
46430;BME280;32131;53.454;-6.180;2022-08-24T13:03:34;101413.47;;;24.87;39.45
46430;BME280;32131;53.454;-6.180;2022-08-24T13:06:06;101414.66;;;25.03;39.00
46430;BME280;32131;53.454;-6.180;2022-08-24T13:08:39;101409.59;;;24.97;38.69
46430;BME280;32131;53.454;-6.180;2022-08-24T13:11:12;101416.69;;;24.95;38.84
46430;BME280;32131;53.454;-6.180;2022-08-24T13:13:47;101415.69;;;24.72;39.02
46430;BME280;32131;53.454;-6.180;2022-08-24T13:16:50;101420.31;;;24.64;39.56
46430;BME280;32131;53.454;-6.180;2022-08-24T13:19:33;101424.91;;;24.59;39.62
46430;BME280;32131;53.454;-6.180;2022-08-24T13:22:45;101416.50;;;24.46;38.72
46430;BME280;32131;53.454;-6.180;2022-08-24T13:25:40;101426.91;;;24.51;38.33
46430;BME280;32131;53.454;-6.180;2022-08-24T13:28:31;101426.16;;;24.75;38.33
46430;BME280;32131;53.454;-6.180;2022-08-24T13:31:13;101425.44;;;24.97;38.08
46430;BME280;32131;53.454;-6.180;2022-08-24T13:33:45;101423.22;;;25.10;37.71
46430;BME280;32131;53.454;-6.180;2022-08-24T13:36:44;101425.28;;;25.27;37.85
46430;BME280;32131;53.454;-6.180;2022-08-24T13:39:40;101426.19;;;25.26;37.72
46430;BME280;32131;53.454;-6.180;2022-08-24T13:42:22;101427.31;;;25.19;37.45
46430;BME280;32131;53.454;-6.180;2022-08-24T13:45:13;101435.25;;;25.19;37.26
46430;BME280;32131;53.454;-6.180;2022-08-24T13:47:58;101428.56;;;25.34;37.90
46430;BME280;32131;53.454;-6.180;2022-08-24T13:50:33;101422.75;;;25.49;37.66
46430;BME280;32131;53.454;-6.180;2022-08-24T13:53:43;101424.50;;;25.50;37.59
46430;BME280;32131;53.454;-6.180;2022-08-24T13:56:37;101437.63;;;25.52;37.10
46430;BME280;32131;53.454;-6.180;2022-08-24T13:59:16;101433.09;;;25.55;36.61
46430;BME280;32131;53.454;-6.180;2022-08-24T14:02:03;101439.47;;;25.50;36.39
46430;BME280;32131;53.454;-6.180;2022-08-24T14:04:41;101435.78;;;25.28;36.60
46430;BME280;32131;53.454;-6.180;2022-08-24T14:07:17;101432.28;;;25.03;36.69
46430;BME280;32131;53.454;-6.180;2022-08-24T14:10:03;101435.72;;;24.79;37.06
46430;BME280;32131;53.454;-6.180;2022-08-24T14:12:43;101446.66;;;24.67;37.45
46430;BME280;32131;53.454;-6.180;2022-08-24T14:15:18;101444.56;;;24.50;37.49
46430;BME280;32131;53.454;-6.180;2022-08-24T14:17:57;101438.66;;;24.42;37.65
46430;BME280;32131;53.454;-6.180;2022-08-24T14:20:58;101444.22;;;24.32;37.63
46430;BME280;32131;53.454;-6.180;2022-08-24T14:23:50;101441.72;;;24.28;38.04
46430;BME280;32131;53.454;-6.180;2022-08-24T14:26:56;101439.97;;;24.27;38.45
46430;BME280;32131;53.454;-6.180;2022-08-24T14:29:39;101438.44;;;24.20;38.19
46430;BME280;32131;53.454;-6.180;2022-08-24T14:35:31;101443.72;;;24.20;38.48
46430;BME280;32131;53.454;-6.180;2022-08-24T14:38:14;101431.63;;;24.12;38.76
46430;BME280;32131;53.454;-6.180;2022-08-24T14:41:00;101438.66;;;24.13;38.96
46430;BME280;32131;53.454;-6.180;2022-08-24T14:43:38;101439.63;;;24.09;38.99
46430;BME280;32131;53.454;-6.180;2022-08-24T14:46:20;101425.91;;;23.98;38.96